Time;durP1;ratioP1;P1;durP2;ratioP2;P2;SDS_P1;SDS_P2;PMS_P1;PMS_P2;Temp;Humidity;BMP_temperature;BMP_pressure;BME280_temperature;BME280_humidity;BME280_pressure;Samples;Min_cycle;Max_cycle;Signal;HPM_P1;HPM_P2
2023/08/29 00:01:04;;;;;;;0.90;0.80;;;;;;;;;;5074624;28;20024;-79
2023/08/29 00:03:32;;;;;;;0.70;0.70;;;;;;;;;;5074713;28;20052;-79
2023/08/29 00:06:04;;;;;;;1.17;0.70;;;;;;;;;;5076206;28;20048;-79
2023/08/29 00:08:29;;;;;;;0.93;0.77;;;;;;;;;;5074399;28;20049;-79
2023/08/29 00:10:58;;;;;;;0.90;0.77;;;;;;;;;;5074667;28;20039;-79
2023/08/29 00:13:23;;;;;;;0.63;0.63;;;;;;;;;;5057838;28;20025;-79
2023/08/29 00:15:49;;;;;;;0.80;0.80;;;;;;;;;;5074925;28;20039;-79
2023/08/29 00:18:15;;;;;;;5.18;1.30;;;;;;;;;;5076076;28;20060;-79
2023/08/29 00:20:40;;;;;;;0.80;0.80;;;;;;;;;;5075712;28;20127;-79
2023/08/29 00:23:09;;;;;;;0.70;0.70;;;;;;;;;;5057746;28;20090;-80
2023/08/29 00:25:34;;;;;;;0.70;0.70;;;;;;;;;;5075744;28;20034;-79
2023/08/29 00:27:59;;;;;;;0.93;0.73;;;;;;;;;;5075060;28;20456;-80
2023/08/29 00:30:25;;;;;;;1.85;0.90;;;;;;;;;;5075309;28;20111;-79
2023/08/29 00:32:50;;;;;;;0.75;0.75;;;;;;;;;;5074204;28;20029;-79
2023/08/29 00:35:16;;;;;;;0.50;0.50;;;;;;;;;;5074101;28;20162;-79
2023/08/29 00:37:41;;;;;;;0.70;0.70;;;;;;;;;;5075343;28;20028;-79
2023/08/29 00:40:07;;;;;;;0.60;0.60;;;;;;;;;;5074009;28;20025;-79
2023/08/29 00:42:32;;;;;;;2.50;1.00;;;;;;;;;;5075242;28;20495;-79
2023/08/29 00:44:58;;;;;;;0.82;0.80;;;;;;;;;;5075211;28;20032;-80
2023/08/29 00:47:23;;;;;;;1.50;0.80;;;;;;;;;;5074074;28;20032;-79
2023/08/29 00:49:48;;;;;;;0.60;0.60;;;;;;;;;;5073833;28;20086;-79
2023/08/29 00:52:14;;;;;;;1.00;0.90;;;;;;;;;;5074073;28;20055;-79
2023/08/29 00:54:39;;;;;;;1.95;0.63;;;;;;;;;;5073765;28;20028;-79
2023/08/29 00:57:05;;;;;;;0.85;0.63;;;;;;;;;;5040501;28;20029;-79
2023/08/29 00:59:30;;;;;;;0.55;0.55;;;;;;;;;;5073624;28;20032;-79
2023/08/29 01:01:57;;;;;;;0.90;0.80;;;;;;;;;;5073880;28;20378;-79
2023/08/29 01:04:22;;;;;;;0.60;0.60;;;;;;;;;;5073663;28;20111;-79
2023/08/29 01:06:47;;;;;;;0.65;0.65;;;;;;;;;;5073479;28;20140;-79
2023/08/29 01:09:13;;;;;;;0.70;0.70;;;;;;;;;;5073458;28;20102;-79
2023/08/29 01:12:07;;;;;;;0.60;0.60;;;;;;;;;;5056755;28;20039;-79
2023/08/29 01:14:43;;;;;;;0.70;0.70;;;;;;;;;;5073743;28;20016;-79
2023/08/29 01:17:10;;;;;;;0.88;0.70;;;;;;;;;;5073558;28;20463;-79
2023/08/29 01:19:41;;;;;;;0.95;0.80;;;;;;;;;;5074619;28;20036;-79
2023/08/29 01:22:37;;;;;;;0.57;0.57;;;;;;;;;;5056973;28;20044;-79
2023/08/29 01:25:25;;;;;;;0.80;0.80;;;;;;;;;;5073455;28;20028;-79
2023/08/29 01:27:50;;;;;;;0.82;0.63;;;;;;;;;;5073157;28;20036;-79
2023/08/29 01:30:16;;;;;;;0.63;0.63;;;;;;;;;;5074213;28;20033;-79
2023/08/29 01:32:42;;;;;;;0.52;0.52;;;;;;;;;;5056314;28;20029;-79
2023/08/29 01:35:08;;;;;;;0.70;0.70;;;;;;;;;;5056240;28;20036;-79
2023/08/29 01:37:34;;;;;;;0.73;0.70;;;;;;;;;;5073274;28;20029;-79
2023/08/29 01:39:59;;;;;;;0.63;0.63;;;;;;;;;;5074379;28;20039;-79
2023/08/29 01:42:24;;;;;;;0.60;0.60;;;;;;;;;;5074326;28;20032;-79
2023/08/29 01:44:50;;;;;;;0.60;0.60;;;;;;;;;;5073928;28;20029;-79
2023/08/29 01:47:15;;;;;;;0.95;0.95;;;;;;;;;;5072653;28;20036;-79
2023/08/29 01:49:42;;;;;;;1.80;0.80;;;;;;;;;;5072605;28;20036;-79
2023/08/29 01:52:07;;;;;;;0.75;0.63;;;;;;;;;;5072996;28;20475;-79
2023/08/29 01:54:33;;;;;;;0.60;0.60;;;;;;;;;;5074109;28;20059;-79
2023/08/29 01:56:58;;;;;;;0.65;0.65;;;;;;;;;;5055772;28;20363;-79
2023/08/29 01:59:25;;;;;;;1.40;0.68;;;;;;;;;;5072456;28;20087;-79
2023/08/29 02:01:50;;;;;;;1.00;0.57;;;;;;;;;;5072480;28;20093;-79
2023/08/29 02:04:16;;;;;;;0.70;0.70;;;;;;;;;;5072512;28;20040;-79
2023/08/29 02:06:41;;;;;;;0.60;0.60;;;;;;;;;;5073290;28;20059;-79
2023/08/29 02:09:06;;;;;;;0.73;0.63;;;;;;;;;;5072108;28;20053;-79
2023/08/29 02:11:32;;;;;;;0.70;0.70;;;;;;;;;;5072286;28;20043;-79
2023/08/29 02:13:57;;;;;;;0.55;0.55;;;;;;;;;;5073488;28;20035;-79
2023/08/29 02:16:24;;;;;;;0.60;0.60;;;;;;;;;;5073189;28;20486;-79
2023/08/29 02:18:53;;;;;;;0.70;0.70;;;;;;;;;;5072228;28;20040;-80
2023/08/29 02:21:18;;;;;;;0.70;0.50;;;;;;;;;;5072170;28;20033;-80
2023/08/29 02:23:44;;;;;;;0.50;0.50;;;;;;;;;;5073535;28;20383;-80
2023/08/29 02:26:09;;;;;;;1.20;0.82;;;;;;;;;;5072081;28;20039;-79
2023/08/29 02:28:36;;;;;;;0.60;0.60;;;;;;;;;;5073810;28;20029;-79
2023/08/29 02:31:03;;;;;;;1.40;0.77;;;;;;;;;;5071903;28;20170;-79
2023/08/29 02:33:28;;;;;;;1.27;0.95;;;;;;;;;;5072062;28;20128;-80
2023/08/29 02:35:54;;;;;;;1.55;0.80;;;;;;;;;;5073480;28;20425;-80
2023/08/29 02:38:19;;;;;;;0.70;0.70;;;;;;;;;;5073325;28;20055;-79
2023/08/29 02:40:44;;;;;;;1.10;0.65;;;;;;;;;;5073412;28;20570;-78
2023/08/29 02:43:10;;;;;;;0.50;0.50;;;;;;;;;;5073311;28;20025;-79
2023/08/29 02:45:35;;;;;;;0.57;0.57;;;;;;;;;;5073458;28;20063;-79
2023/08/29 02:48:00;;;;;;;1.30;0.70;;;;;;;;;;5072267;28;20029;-79
2023/08/29 02:50:26;;;;;;;4.00;0.70;;;;;;;;;;5073488;28;20055;-79
2023/08/29 02:52:51;;;;;;;1.33;0.70;;;;;;;;;;5071758;28;20078;-78
2023/08/29 02:55:17;;;;;;;0.60;0.60;;;;;;;;;;5073077;28;20056;-79
2023/08/29 02:57:42;;;;;;;0.60;0.60;;;;;;;;;;5071778;28;20025;-79
2023/08/29 03:00:10;;;;;;;0.68;0.68;;;;;;;;;;5071786;28;20463;-79
2023/08/29 03:02:36;;;;;;;4.55;0.80;;;;;;;;;;5055246;28;20028;-78
2023/08/29 03:05:02;;;;;;;0.68;0.68;;;;;;;;;;5071735;28;20032;-79
2023/08/29 03:07:28;;;;;;;4.43;0.95;;;;;;;;;;5054725;28;20025;-79
2023/08/29 03:09:53;;;;;;;3.97;0.90;;;;;;;;;;5073201;28;20038;-79
2023/08/29 03:12:18;;;;;;;0.73;0.73;;;;;;;;;;5073085;28;20494;-79
2023/08/29 03:14:44;;;;;;;0.68;0.65;;;;;;;;;;5072857;28;20032;-79
2023/08/29 03:17:09;;;;;;;1.30;0.70;;;;;;;;;;5073196;28;20042;-79
2023/08/29 03:19:35;;;;;;;0.60;0.60;;;;;;;;;;5072973;28;20124;-79
2023/08/29 03:22:00;;;;;;;0.75;0.73;;;;;;;;;;5072714;28;20041;-79
2023/08/29 03:24:25;;;;;;;0.88;0.80;;;;;;;;;;5072748;28;20044;-79
2023/08/29 03:26:51;;;;;;;1.15;0.60;;;;;;;;;;5072624;28;20036;-79
2023/08/29 03:29:16;;;;;;;0.60;0.60;;;;;;;;;;5074412;28;20037;-79
2023/08/29 03:31:41;;;;;;;0.60;0.60;;;;;;;;;;5075506;28;20449;-79
2023/08/29 03:34:07;;;;;;;1.35;0.68;;;;;;;;;;5076547;28;20086;-79
2023/08/29 03:36:32;;;;;;;0.60;0.60;;;;;;;;;;5075432;28;20039;-79
2023/08/29 03:38:57;;;;;;;1.05;0.77;;;;;;;;;;5075449;28;20028;-79
2023/08/29 03:41:23;;;;;;;0.60;0.60;;;;;;;;;;5058452;28;20120;-79
2023/08/29 03:43:49;;;;;;;0.70;0.70;;;;;;;;;;5075284;28;20025;-79
2023/08/29 03:46:14;;;;;;;3.22;0.95;;;;;;;;;;5075583;28;20448;-79
2023/08/29 03:48:41;;;;;;;0.55;0.55;;;;;;;;;;5076353;28;20029;-79
2023/08/29 03:51:06;;;;;;;2.50;1.00;;;;;;;;;;5076519;28;20523;-79
2023/08/29 03:53:38;;;;;;;1.30;0.80;;;;;;;;;;5058211;28;20085;-80
2023/08/29 03:56:05;;;;;;;0.88;0.88;;;;;;;;;;5076225;28;20108;-79
2023/08/29 03:58:31;;;;;;;1.30;0.80;;;;;;;;;;5075201;28;20406;-79
2023/08/29 04:00:56;;;;;;;1.00;0.70;;;;;;;;;;5075238;28;20039;-78
2023/08/29 04:03:22;;;;;;;0.70;0.68;;;;;;;;;;5076403;28;20035;-77
2023/08/29 04:05:47;;;;;;;0.70;0.70;;;;;;;;;;5078289;28;20036;-79
2023/08/29 04:08:13;;;;;;;2.85;0.88;;;;;;;;;;5077120;28;20135;-79
2023/08/29 04:10:39;;;;;;;0.80;0.80;;;;;;;;;;5076793;28;20052;-78
2023/08/29 04:13:06;;;;;;;0.80;0.80;;;;;;;;;;5075847;28;20020;-78
2023/08/29 04:15:35;;;;;;;1.13;0.90;;;;;;;;;;5077221;28;20048;-78
2023/08/29 04:18:01;;;;;;;1.77;1.15;;;;;;;;;;5075319;28;20111;-78
2023/08/29 04:20:27;;;;;;;1.40;1.10;;;;;;;;;;5074809;28;20028;-78
2023/08/29 04:22:53;;;;;;;1.35;1.00;;;;;;;;;;5057905;28;20032;-78
2023/08/29 04:25:19;;;;;;;1.30;1.20;;;;;;;;;;5075326;28;20082;-78
2023/08/29 04:27:46;;;;;;;3.05;1.50;;;;;;;;;;5075149;28;20028;-78
2023/08/29 04:30:12;;;;;;;3.25;1.20;;;;;;;;;;5076506;28;20028;-77
2023/08/29 04:32:37;;;;;;;2.85;1.30;;;;;;;;;;5074171;28;20035;-77
2023/08/29 04:35:06;;;;;;;4.15;1.50;;;;;;;;;;5075150;28;20029;-78
2023/08/29 04:37:33;;;;;;;3.15;1.65;;;;;;;;;;5057195;28;20150;-78
2023/08/29 04:39:59;;;;;;;1.98;1.40;;;;;;;;;;5073310;28;20028;-78
2023/08/29 04:42:25;;;;;;;2.42;1.40;;;;;;;;;;5073732;28;20489;-79
2023/08/29 04:44:51;;;;;;;2.53;1.40;;;;;;;;;;5056106;28;20028;-78
2023/08/29 04:47:16;;;;;;;12.43;1.77;;;;;;;;;;5073287;28;20089;-78
2023/08/29 04:49:42;;;;;;;7.07;2.25;;;;;;;;;;5073451;28;20033;-77
2023/08/29 04:52:07;;;;;;;3.28;1.50;;;;;;;;;;5073447;28;20025;-77
2023/08/29 04:54:32;;;;;;;2.08;1.35;;;;;;;;;;5074327;28;20115;-78
2023/08/29 04:56:58;;;;;;;3.20;1.58;;;;;;;;;;5075030;28;20025;-78
2023/08/29 04:59:23;;;;;;;6.00;1.50;;;;;;;;;;5073180;28;20028;-77
2023/08/29 05:01:51;;;;;;;4.43;1.50;;;;;;;;;;5073700;28;20043;-78
2023/08/29 05:04:17;;;;;;;3.45;1.67;;;;;;;;;;5056403;28;20048;-78
2023/08/29 05:06:42;;;;;;;21.58;4.47;;;;;;;;;;5073639;28;20459;-79
2023/08/29 05:09:09;;;;;;;18.30;4.55;;;;;;;;;;5072789;28;20048;-78
2023/08/29 05:11:34;;;;;;;20.98;4.72;;;;;;;;;;5073348;28;20028;-78
2023/08/29 05:14:00;;;;;;;18.13;4.63;;;;;;;;;;5057169;28;20026;-78
2023/08/29 05:16:26;;;;;;;17.05;4.50;;;;;;;;;;5075179;28;20399;-77
2023/08/29 05:18:51;;;;;;;21.00;5.32;;;;;;;;;;5076051;28;20031;-78
2023/08/29 05:21:17;;;;;;;15.73;4.15;;;;;;;;;;5073623;28;20546;-78
2023/08/29 05:23:42;;;;;;;15.65;4.13;;;;;;;;;;5056312;28;20025;-78
2023/08/29 05:26:08;;;;;;;12.52;3.83;;;;;;;;;;5039789;28;20032;-78
2023/08/29 05:28:33;;;;;;;13.20;3.28;;;;;;;;;;5039550;28;20082;-80
2023/08/29 05:30:59;;;;;;;13.60;3.80;;;;;;;;;;5073742;28;20074;-80
2023/08/29 05:33:24;;;;;;;11.23;3.40;;;;;;;;;;5073884;28;20080;-80
2023/08/29 05:35:50;;;;;;;12.32;3.63;;;;;;;;;;5056937;28;20078;-81
2023/08/29 05:38:15;;;;;;;8.70;3.33;;;;;;;;;;5074192;28;20478;-77
2023/08/29 05:40:41;;;;;;;8.85;2.97;;;;;;;;;;5074016;28;20044;-78
2023/08/29 05:43:06;;;;;;;8.18;3.13;;;;;;;;;;5075687;28;20510;-78
2023/08/29 05:45:32;;;;;;;9.20;2.90;;;;;;;;;;5076903;28;20073;-78
2023/08/29 05:47:57;;;;;;;5.88;2.90;;;;;;;;;;5075658;28;20035;-78
2023/08/29 05:50:22;;;;;;;6.47;2.50;;;;;;;;;;5075260;28;20058;-78
2023/08/29 05:52:48;;;;;;;8.95;2.95;;;;;;;;;;5076477;28;20032;-78
2023/08/29 05:55:14;;;;;;;5.78;2.70;;;;;;;;;;5059692;28;20051;-78
2023/08/29 05:57:39;;;;;;;8.23;2.63;;;;;;;;;;5060052;28;20115;-78
2023/08/29 06:00:07;;;;;;;5.20;2.47;;;;;;;;;;5076745;28;20034;-78
2023/08/29 06:02:33;;;;;;;5.03;2.72;;;;;;;;;;5058674;28;20563;-79
2023/08/29 06:04:58;;;;;;;5.63;2.60;;;;;;;;;;5075881;28;20052;-79
2023/08/29 06:07:24;;;;;;;8.30;2.33;;;;;;;;;;5059407;28;20036;-80
2023/08/29 06:09:50;;;;;;;6.63;2.42;;;;;;;;;;5076609;28;20044;-79
2023/08/29 06:12:16;;;;;;;6.10;2.35;;;;;;;;;;5059345;28;20043;-77
2023/08/29 06:14:41;;;;;;;7.50;2.15;;;;;;;;;;5076287;28;20032;-78
2023/08/29 06:17:07;;;;;;;4.45;2.25;;;;;;;;;;5075083;28;20521;-78
2023/08/29 06:19:32;;;;;;;5.97;2.35;;;;;;;;;;5075499;28;20383;-79
2023/08/29 06:21:57;;;;;;;4.50;2.30;;;;;;;;;;5073747;28;20467;-78
2023/08/29 06:24:23;;;;;;;6.93;2.70;;;;;;;;;;5072933;28;20034;-79
2023/08/29 06:26:49;;;;;;;5.97;3.15;;;;;;;;;;5072369;28;20101;-78
2023/08/29 06:29:14;;;;;;;4.63;2.13;;;;;;;;;;5072114;28;20090;-78
2023/08/29 06:31:41;;;;;;;4.72;2.50;;;;;;;;;;5072282;28;20033;-78
2023/08/29 06:34:06;;;;;;;4.53;2.33;;;;;;;;;;5073529;28;20059;-79
2023/08/29 06:36:32;;;;;;;3.92;2.35;;;;;;;;;;5072222;28;20055;-79
2023/08/29 06:38:57;;;;;;;7.78;2.20;;;;;;;;;;5055346;28;20485;-79
2023/08/29 06:41:22;;;;;;;3.20;1.95;;;;;;;;;;5072100;28;20036;-80
2023/08/29 06:43:48;;;;;;;1.85;1.70;;;;;;;;;;5073333;28;20024;-80
2023/08/29 06:46:14;;;;;;;1.80;1.70;;;;;;;;;;5072175;28;20115;-79
2023/08/29 06:48:40;;;;;;;2.45;2.00;;;;;;;;;;5071817;28;20474;-79
2023/08/29 06:51:07;;;;;;;4.03;2.00;;;;;;;;;;5071418;28;20056;-79
2023/08/29 06:53:32;;;;;;;4.68;1.90;;;;;;;;;;5071465;28;20437;-80
2023/08/29 06:55:58;;;;;;;7.05;2.25;;;;;;;;;;5072651;28;20082;-79
2023/08/29 06:58:23;;;;;;;4.13;2.05;;;;;;;;;;5071651;28;20040;-80
2023/08/29 07:00:48;;;;;;;4.15;1.85;;;;;;;;;;5054674;28;20024;-80
2023/08/29 07:03:14;;;;;;;2.10;1.60;;;;;;;;;;5074801;28;20033;-79
2023/08/29 07:05:39;;;;;;;1.85;1.70;;;;;;;;;;5076918;28;20141;-79
2023/08/29 07:08:05;;;;;;;4.03;2.20;;;;;;;;;;5058901;28;20246;-80
2023/08/29 07:10:30;;;;;;;5.82;1.92;;;;;;;;;;5076145;28;20032;-79
2023/08/29 07:12:56;;;;;;;2.90;1.92;;;;;;;;;;5075772;28;20386;-80
2023/08/29 07:15:22;;;;;;;9.90;2.35;;;;;;;;;;5076709;28;20039;-80
2023/08/29 07:17:48;;;;;;;5.30;2.20;;;;;;;;;;5076309;28;20390;-77
2023/08/29 07:20:15;;;;;;;3.78;1.88;;;;;;;;;;5058613;28;20059;-79
2023/08/29 07:22:43;;;;;;;4.10;1.95;;;;;;;;;;5077275;28;20483;-79
2023/08/29 07:25:09;;;;;;;8.80;2.25;;;;;;;;;;5058987;28;20058;-77
2023/08/29 07:27:35;;;;;;;3.10;1.75;;;;;;;;;;5075487;28;20024;-79
2023/08/29 07:30:00;;;;;;;3.95;2.00;;;;;;;;;;5058573;28;20033;-77
2023/08/29 07:32:26;;;;;;;4.32;1.77;;;;;;;;;;5075281;28;20094;-77
2023/08/29 07:34:51;;;;;;;3.80;1.88;;;;;;;;;;5075329;28;20046;-78
2023/08/29 07:37:17;;;;;;;3.72;2.10;;;;;;;;;;5075532;28;20044;-77
2023/08/29 07:39:43;;;;;;;4.25;2.22;;;;;;;;;;5075267;28;20032;-78
2023/08/29 07:42:09;;;;;;;4.63;1.95;;;;;;;;;;5075084;28;20016;-77
2023/08/29 07:44:34;;;;;;;4.38;2.00;;;;;;;;;;5075137;28;20433;-77
2023/08/29 07:46:59;;;;;;;4.85;2.33;;;;;;;;;;5075201;28;20041;-77
2023/08/29 07:49:25;;;;;;;3.55;2.00;;;;;;;;;;5076179;28;20464;-77
2023/08/29 07:51:52;;;;;;;3.85;1.92;;;;;;;;;;5075077;28;20035;-77
2023/08/29 07:54:18;;;;;;;2.72;2.00;;;;;;;;;;5076479;28;20047;-77
2023/08/29 07:56:43;;;;;;;3.08;2.03;;;;;;;;;;5076469;28;20115;-77
2023/08/29 07:59:09;;;;;;;4.43;1.70;;;;;;;;;;5075748;28;20491;-77
2023/08/29 08:01:35;;;;;;;4.22;1.92;;;;;;;;;;5075132;28;20020;-77
2023/08/29 08:04:01;;;;;;;4.82;1.23;;;;;;;;;;5076406;28;20028;-77
2023/08/29 08:06:26;;;;;;;4.63;1.55;;;;;;;;;;5076326;28;20372;-77
2023/08/29 08:08:53;;;;;;;2.85;1.70;;;;;;;;;;5075659;28;20123;-77
2023/08/29 08:11:18;;;;;;;4.85;1.67;;;;;;;;;;5076272;28;20063;-78
2023/08/29 08:13:44;;;;;;;4.45;1.60;;;;;;;;;;5074032;28;20024;-78
2023/08/29 08:16:09;;;;;;;3.92;1.50;;;;;;;;;;5075112;28;20471;-77
2023/08/29 08:18:35;;;;;;;3.10;1.60;;;;;;;;;;5075796;28;20054;-78
2023/08/29 08:21:00;;;;;;;5.60;1.77;;;;;;;;;;5074567;28;20472;-77
2023/08/29 08:23:25;;;;;;;2.67;1.50;;;;;;;;;;5074568;28;20108;-78
2023/08/29 08:25:51;;;;;;;3.00;1.65;;;;;;;;;;5074307;28;20032;-78
2023/08/29 08:28:16;;;;;;;2.92;1.42;;;;;;;;;;5074445;28;20025;-78
2023/08/29 08:30:41;;;;;;;3.13;1.55;;;;;;;;;;5074329;28;20032;-78
2023/08/29 08:33:07;;;;;;;1.73;1.25;;;;;;;;;;5057382;28;20478;-78
2023/08/29 08:35:32;;;;;;;1.60;1.10;;;;;;;;;;5057404;28;20036;-78
2023/08/29 08:37:58;;;;;;;4.45;1.30;;;;;;;;;;5074650;28;20375;-78
2023/08/29 08:40:23;;;;;;;5.07;1.10;;;;;;;;;;5075318;28;20024;-78
2023/08/29 08:42:49;;;;;;;3.53;1.10;;;;;;;;;;5057384;28;20028;-78
2023/08/29 08:45:14;;;;;;;1.98;1.20;;;;;;;;;;5074055;28;20506;-78
2023/08/29 08:47:40;;;;;;;2.90;1.17;;;;;;;;;;5074952;28;20446;-78
2023/08/29 08:50:10;;;;;;;2.63;1.45;;;;;;;;;;5057836;28;20036;-78
2023/08/29 08:52:37;;;;;;;2.40;1.00;;;;;;;;;;5074171;28;20035;-78
2023/08/29 08:55:02;;;;;;;1.00;1.00;;;;;;;;;;5057128;28;20395;-78
2023/08/29 08:57:28;;;;;;;1.00;0.90;;;;;;;;;;5075415;28;20028;-78
2023/08/29 08:59:54;;;;;;;2.08;1.17;;;;;;;;;;5073769;28;20078;-78
2023/08/29 09:02:19;;;;;;;1.95;1.08;;;;;;;;;;5056989;28;20105;-77
2023/08/29 09:04:45;;;;;;;1.27;0.98;;;;;;;;;;5074084;28;20110;-78
2023/08/29 09:07:10;;;;;;;1.13;0.90;;;;;;;;;;5073588;28;20103;-77
2023/08/29 09:09:36;;;;;;;1.00;0.90;;;;;;;;;;5073664;28;20466;-78
2023/08/29 09:12:01;;;;;;;1.35;0.73;;;;;;;;;;5075330;28;20518;-77
2023/08/29 09:14:27;;;;;;;2.47;1.23;;;;;;;;;;5056852;28;20085;-78
2023/08/29 09:16:54;;;;;;;1.45;0.95;;;;;;;;;;5075045;28;20028;-78
2023/08/29 09:19:22;;;;;;;2.28;1.02;;;;;;;;;;5073789;28;20032;-78
2023/08/29 09:21:48;;;;;;;2.35;0.90;;;;;;;;;;5056806;28;20056;-78
2023/08/29 09:24:13;;;;;;;1.38;0.90;;;;;;;;;;5056690;28;20044;-78
2023/08/29 09:26:42;;;;;;;0.80;0.80;;;;;;;;;;5056275;28;20111;-77
2023/08/29 09:29:20;;;;;;;0.70;0.70;;;;;;;;;;5074725;28;20388;-77
2023/08/29 09:31:46;;;;;;;0.77;0.77;;;;;;;;;;5074602;28;20042;-78
2023/08/29 09:34:29;;;;;;;1.23;0.90;;;;;;;;;;5074652;28;20494;-78
2023/08/29 09:36:56;;;;;;;2.60;0.90;;;;;;;;;;5073255;28;20025;-77
2023/08/29 09:39:22;;;;;;;2.08;1.00;;;;;;;;;;5074138;28;20492;-78
2023/08/29 09:42:04;;;;;;;1.42;0.90;;;;;;;;;;5056217;28;20158;-78
2023/08/29 09:44:34;;;;;;;1.02;0.90;;;;;;;;;;5072896;28;20028;-78
2023/08/29 09:46:59;;;;;;;2.95;0.80;;;;;;;;;;5056291;28;20373;-78
2023/08/29 09:49:51;;;;;;;1.10;0.80;;;;;;;;;;5074010;28;20032;-78
2023/08/29 09:52:18;;;;;;;1.00;0.70;;;;;;;;;;5069999;28;20185;-78
2023/08/29 09:54:45;;;;;;;1.02;0.80;;;;;;;;;;5072801;28;20077;-77
2023/08/29 09:57:13;;;;;;;1.63;0.90;;;;;;;;;;5072606;28;20020;-78
2023/08/29 09:59:40;;;;;;;2.45;0.90;;;;;;;;;;5074403;28;20456;-78
2023/08/29 10:02:07;;;;;;;2.88;0.80;;;;;;;;;;5072663;28;20024;-77
2023/08/29 10:04:34;;;;;;;1.85;0.90;;;;;;;;;;5072466;28;20056;-77
2023/08/29 10:07:00;;;;;;;0.80;0.80;;;;;;;;;;5072338;28;20028;-78
2023/08/29 10:09:28;;;;;;;1.77;1.00;;;;;;;;;;5072194;28;20092;-77
2023/08/29 10:11:54;;;;;;;0.98;0.70;;;;;;;;;;5072874;28;20479;-77
2023/08/29 10:14:21;;;;;;;1.45;0.70;;;;;;;;;;5072177;28;20115;-77
2023/08/29 10:16:47;;;;;;;0.88;0.75;;;;;;;;;;5055907;28;20045;-78
2023/08/29 10:19:13;;;;;;;0.70;0.70;;;;;;;;;;5072465;28;20036;-78
2023/08/29 10:21:40;;;;;;;0.98;0.80;;;;;;;;;;5072781;28;20103;-78
2023/08/29 10:24:05;;;;;;;0.70;0.70;;;;;;;;;;5073560;28;20031;-78
2023/08/29 10:26:31;;;;;;;1.05;0.80;;;;;;;;;;5072309;28;20028;-78
2023/08/29 10:28:57;;;;;;;1.48;0.90;;;;;;;;;;5073358;28;20390;-78
2023/08/29 10:31:22;;;;;;;0.80;0.80;;;;;;;;;;5054987;28;20035;-78
2023/08/29 10:33:48;;;;;;;1.08;0.60;;;;;;;;;;5073616;28;20036;-79
2023/08/29 10:36:13;;;;;;;0.80;0.80;;;;;;;;;;5073282;28;20028;-79
2023/08/29 10:38:39;;;;;;;1.15;0.70;;;;;;;;;;5071843;28;20021;-79
2023/08/29 10:41:09;;;;;;;1.92;0.90;;;;;;;;;;5055461;28;20165;-80
2023/08/29 10:43:35;;;;;;;1.02;0.70;;;;;;;;;;5074110;28;20027;-78
2023/08/29 10:46:10;;;;;;;1.05;0.77;;;;;;;;;;5072590;28;20037;-79
2023/08/29 10:48:43;;;;;;;1.02;0.80;;;;;;;;;;5073535;28;20030;-79
2023/08/29 10:51:11;;;;;;;1.38;0.70;;;;;;;;;;5073560;28;20032;-79
2023/08/29 10:53:38;;;;;;;2.00;0.93;;;;;;;;;;5072353;28;20021;-79
2023/08/29 10:56:05;;;;;;;0.88;0.70;;;;;;;;;;5073150;28;20028;-79
2023/08/29 10:58:35;;;;;;;0.80;0.75;;;;;;;;;;5071925;28;20016;-79
2023/08/29 11:01:01;;;;;;;0.70;0.70;;;;;;;;;;5055134;28;20035;-79
2023/08/29 11:03:48;;;;;;;0.82;0.70;;;;;;;;;;5072219;28;20107;-80
2023/08/29 11:06:15;;;;;;;0.52;0.52;;;;;;;;;;5071972;28;20059;-82
2023/08/29 11:08:41;;;;;;;3.50;0.73;;;;;;;;;;5070865;28;20031;-81
2023/08/29 11:11:09;;;;;;;3.17;0.80;;;;;;;;;;5070608;28;20056;-80
2023/08/29 11:13:35;;;;;;;1.15;0.60;;;;;;;;;;5072389;28;20116;-80
2023/08/29 11:16:00;;;;;;;1.02;0.68;;;;;;;;;;5072624;28;20049;-83
2023/08/29 11:18:35;;;;;;;1.33;0.80;;;;;;;;;;5072565;28;20040;-82
2023/08/29 11:21:08;;;;;;;1.70;0.75;;;;;;;;;;5071411;28;20021;-82
2023/08/29 11:23:37;;;;;;;0.90;0.80;;;;;;;;;;5072055;28;20020;-83
2023/08/29 11:26:03;;;;;;;0.63;0.60;;;;;;;;;;5072477;28;20732;-82
2023/08/29 11:28:31;;;;;;;0.98;0.60;;;;;;;;;;5074226;28;20051;-83
2023/08/29 11:30:56;;;;;;;0.70;0.70;;;;;;;;;;5076162;28;20037;-83
2023/08/29 11:33:29;;;;;;;1.40;0.60;;;;;;;;;;5062406;28;20032;-84
2023/08/29 11:35:55;;;;;;;0.75;0.60;;;;;;;;;;5057403;28;20021;-84
2023/08/29 11:38:26;;;;;;;2.25;0.90;;;;;;;;;;5066712;28;20059;-83
2023/08/29 11:40:51;;;;;;;0.82;0.60;;;;;;;;;;5055527;28;20029;-84
2023/08/29 11:43:16;;;;;;;0.85;0.60;;;;;;;;;;5072203;28;20032;-81
2023/08/29 11:45:42;;;;;;;0.98;0.70;;;;;;;;;;5070787;28;20035;-82
2023/08/29 11:48:08;;;;;;;1.55;0.80;;;;;;;;;;5071943;28;20033;-82
2023/08/29 11:50:33;;;;;;;2.70;0.77;;;;;;;;;;5057470;28;20036;-83
2023/08/29 11:52:58;;;;;;;0.88;0.70;;;;;;;;;;5057790;28;20028;-81
2023/08/29 11:55:25;;;;;;;3.25;0.88;;;;;;;;;;5074231;28;20029;-81
2023/08/29 11:57:52;;;;;;;0.75;0.75;;;;;;;;;;5057904;28;20521;-82
2023/08/29 12:00:18;;;;;;;1.27;0.80;;;;;;;;;;5074416;28;20052;-81
2023/08/29 12:02:44;;;;;;;1.35;0.90;;;;;;;;;;5074362;28;20048;-81
2023/08/29 12:05:12;;;;;;;1.17;0.80;;;;;;;;;;5074725;28;20025;-81
2023/08/29 12:07:38;;;;;;;2.83;1.20;;;;;;;;;;5079998;28;20499;-81
2023/08/29 12:10:08;;;;;;;1.38;0.70;;;;;;;;;;5075068;28;20138;-81
2023/08/29 12:12:36;;;;;;;3.67;0.70;;;;;;;;;;5075650;28;20021;-79
2023/08/29 12:15:05;;;;;;;4.15;0.73;;;;;;;;;;5075556;28;20036;-81
2023/08/29 12:17:42;;;;;;;0.93;0.70;;;;;;;;;;5074231;28;20102;-81
2023/08/29 12:20:14;;;;;;;4.10;0.90;;;;;;;;;;5073816;28;20024;-81
2023/08/29 12:22:42;;;;;;;3.00;0.70;;;;;;;;;;5073961;28;20118;-81
2023/08/29 12:25:10;;;;;;;1.38;0.88;;;;;;;;;;5073924;28;20097;-81
2023/08/29 12:27:36;;;;;;;1.02;0.90;;;;;;;;;;5075057;28;20536;-81
2023/08/29 12:30:02;;;;;;;2.45;0.68;;;;;;;;;;5075007;28;20063;-81
2023/08/29 12:32:28;;;;;;;1.08;0.98;;;;;;;;;;5074409;28;20395;-79
2023/08/29 12:34:57;;;;;;;1.02;0.70;;;;;;;;;;5074731;28;20485;-79
2023/08/29 12:37:23;;;;;;;0.77;0.75;;;;;;;;;;5074411;28;20052;-79
2023/08/29 12:39:49;;;;;;;1.00;0.75;;;;;;;;;;5075096;28;20020;-79
2023/08/29 12:42:15;;;;;;;0.80;0.60;;;;;;;;;;5075616;28;20028;-79
2023/08/29 12:44:40;;;;;;;2.20;0.80;;;;;;;;;;5075988;28;20028;-79
2023/08/29 12:47:05;;;;;;;0.60;0.60;;;;;;;;;;5074413;28;20040;-79
2023/08/29 12:49:31;;;;;;;1.02;0.70;;;;;;;;;;5058476;28;20024;-79
2023/08/29 12:51:57;;;;;;;0.50;0.50;;;;;;;;;;5075761;28;20112;-79
2023/08/29 12:54:22;;;;;;;0.75;0.70;;;;;;;;;;5074215;28;20120;-80
2023/08/29 12:56:48;;;;;;;0.52;0.52;;;;;;;;;;5074120;28;20038;-80
2023/08/29 12:59:13;;;;;;;0.80;0.80;;;;;;;;;;5075131;28;20021;-80
2023/08/29 13:01:39;;;;;;;0.73;0.60;;;;;;;;;;5074119;28;20028;-81
2023/08/29 13:04:04;;;;;;;1.58;0.90;;;;;;;;;;5075155;28;20494;-79
2023/08/29 13:06:29;;;;;;;1.13;0.73;;;;;;;;;;5075040;28;20395;-80
2023/08/29 13:08:55;;;;;;;6.43;0.70;;;;;;;;;;5057031;28;20230;-80
2023/08/29 13:11:21;;;;;;;1.60;0.60;;;;;;;;;;5074862;28;20060;-79
2023/08/29 13:13:46;;;;;;;2.80;0.70;;;;;;;;;;5074004;28;20039;-80
2023/08/29 13:16:14;;;;;;;1.70;0.80;;;;;;;;;;5075464;28;20039;-80
2023/08/29 13:18:40;;;;;;;0.68;0.68;;;;;;;;;;5056863;28;20036;-80
2023/08/29 13:21:05;;;;;;;2.85;0.70;;;;;;;;;;5073786;28;20035;-80
2023/08/29 13:23:31;;;;;;;0.90;0.80;;;;;;;;;;5073766;28;20033;-81
2023/08/29 13:25:56;;;;;;;1.35;0.80;;;;;;;;;;5075934;28;20433;-80
2023/08/29 13:28:22;;;;;;;4.22;1.17;;;;;;;;;;5075161;28;20037;-79
2023/08/29 13:30:47;;;;;;;1.25;0.80;;;;;;;;;;5077042;28;20075;-78
2023/08/29 13:33:13;;;;;;;2.50;0.80;;;;;;;;;;5074270;28;20028;-79
2023/08/29 13:35:38;;;;;;;0.65;0.65;;;;;;;;;;5073493;28;20034;-80
2023/08/29 13:38:03;;;;;;;1.05;0.70;;;;;;;;;;5074550;28;20029;-80
2023/08/29 13:40:29;;;;;;;0.75;0.57;;;;;;;;;;5075426;28;20502;-80
2023/08/29 13:42:54;;;;;;;1.70;0.90;;;;;;;;;;5076848;28;20040;-78
2023/08/29 13:45:20;;;;;;;1.73;1.00;;;;;;;;;;5074749;28;20032;-79
2023/08/29 13:47:46;;;;;;;0.80;0.70;;;;;;;;;;5077657;28;20086;-79
2023/08/29 13:50:12;;;;;;;1.38;0.80;;;;;;;;;;5074830;28;20029;-81
2023/08/29 13:52:37;;;;;;;1.02;0.60;;;;;;;;;;5075221;28;20078;-78
2023/08/29 13:55:03;;;;;;;1.10;0.85;;;;;;;;;;5075065;28;20028;-80
2023/08/29 13:57:29;;;;;;;2.22;0.80;;;;;;;;;;5073133;28;20025;-80
2023/08/29 13:59:54;;;;;;;1.60;0.82;;;;;;;;;;5073404;28;20095;-80
2023/08/29 14:02:19;;;;;;;0.98;0.80;;;;;;;;;;5056501;28;20058;-80
2023/08/29 14:04:45;;;;;;;1.67;0.90;;;;;;;;;;5056623;28;20032;-80
2023/08/29 14:07:10;;;;;;;0.90;0.90;;;;;;;;;;5056552;28;20033;-80
2023/08/29 14:09:36;;;;;;;4.75;0.93;;;;;;;;;;5074542;28;20084;-80
2023/08/29 14:12:01;;;;;;;1.15;0.80;;;;;;;;;;5079512;28;20050;-79
2023/08/29 14:14:27;;;;;;;1.55;1.00;;;;;;;;;;5078110;28;20036;-79
2023/08/29 14:16:52;;;;;;;2.08;1.38;;;;;;;;;;5078806;28;20161;-80
2023/08/29 14:19:20;;;;;;;1.70;1.23;;;;;;;;;;5084519;28;20604;-79
2023/08/29 14:21:46;;;;;;;3.30;1.23;;;;;;;;;;5085204;28;20100;-78
2023/08/29 14:24:11;;;;;;;2.63;1.70;;;;;;;;;;5062949;28;20529;-79
2023/08/29 14:26:37;;;;;;;2.47;1.73;;;;;;;;;;5077941;28;20119;-78
2023/08/29 14:29:03;;;;;;;3.28;1.88;;;;;;;;;;5075193;28;20031;-78
2023/08/29 14:31:28;;;;;;;2.30;1.63;;;;;;;;;;5075822;28;20112;-78
2023/08/29 14:33:53;;;;;;;4.10;2.30;;;;;;;;;;5075255;28;20055;-80
2023/08/29 14:36:19;;;;;;;8.00;1.95;;;;;;;;;;5075835;28;20024;-80
2023/08/29 14:38:45;;;;;;;3.30;2.05;;;;;;;;;;5075515;28;20020;-81